sensor_id;sensor_type;location;lat;lon;timestamp;P1;durP1;ratioP1;P2;durP2;ratioP2
39948;SDS011;29070;48.102;-1.652;2022-10-13T00:04:51;5.03;;;1.70;;
39948;SDS011;29070;48.102;-1.652;2022-10-13T00:09:51;4.00;;;1.27;;
39948;SDS011;29070;48.102;-1.652;2022-10-13T00:14:51;11.63;;;1.87;;
39948;SDS011;29070;48.102;-1.652;2022-10-13T00:19:52;7.73;;;1.63;;
39948;SDS011;29070;48.102;-1.652;2022-10-13T00:24:52;7.53;;;2.10;;
39948;SDS011;29070;48.102;-1.652;2022-10-13T00:29:53;5.60;;;1.58;;
39948;SDS011;29070;48.102;-1.652;2022-10-13T00:34:53;8.27;;;1.73;;
39948;SDS011;29070;48.102;-1.652;2022-10-13T00:39:53;4.83;;;1.83;;
39948;SDS011;29070;48.102;-1.652;2022-10-13T00:45:14;5.27;;;1.87;;
39948;SDS011;29070;48.102;-1.652;2022-10-13T00:50:28;8.23;;;2.08;;
39948;SDS011;29070;48.102;-1.652;2022-10-13T00:55:33;9.73;;;1.70;;
39948;SDS011;29070;48.102;-1.652;2022-10-13T01:00:35;5.90;;;1.30;;
39948;SDS011;29070;48.102;-1.652;2022-10-13T01:05:35;3.43;;;1.53;;
39948;SDS011;29070;48.102;-1.652;2022-10-13T01:31:39;8.18;;;1.70;;
39948;SDS011;29070;48.102;-1.652;2022-10-13T01:41:42;9.07;;;2.53;;
39948;SDS011;29070;48.102;-1.652;2022-10-13T01:46:45;6.90;;;1.80;;
39948;SDS011;29070;48.102;-1.652;2022-10-13T01:51:49;6.35;;;1.70;;
39948;SDS011;29070;48.102;-1.652;2022-10-13T01:56:52;7.63;;;2.00;;
39948;SDS011;29070;48.102;-1.652;2022-10-13T02:07:22;10.00;;;1.95;;
39948;SDS011;29070;48.102;-1.652;2022-10-13T02:12:30;5.38;;;1.92;;
39948;SDS011;29070;48.102;-1.652;2022-10-13T02:22:37;4.10;;;1.92;;
39948;SDS011;29070;48.102;-1.652;2022-10-13T02:27:42;5.13;;;1.60;;
39948;SDS011;29070;48.102;-1.652;2022-10-13T02:32:43;8.27;;;1.98;;
39948;SDS011;29070;48.102;-1.652;2022-10-13T02:37:43;9.40;;;2.43;;
39948;SDS011;29070;48.102;-1.652;2022-10-13T02:42:43;9.63;;;2.00;;
39948;SDS011;29070;48.102;-1.652;2022-10-13T02:47:44;8.50;;;2.33;;
39948;SDS011;29070;48.102;-1.652;2022-10-13T02:52:45;9.00;;;2.17;;
39948;SDS011;29070;48.102;-1.652;2022-10-13T02:57:45;5.13;;;1.97;;
39948;SDS011;29070;48.102;-1.652;2022-10-13T03:02:46;5.27;;;1.80;;
39948;SDS011;29070;48.102;-1.652;2022-10-13T03:07:46;5.63;;;1.90;;
39948;SDS011;29070;48.102;-1.652;2022-10-13T03:12:46;4.90;;;2.20;;
39948;SDS011;29070;48.102;-1.652;2022-10-13T03:17:47;4.73;;;2.27;;
39948;SDS011;29070;48.102;-1.652;2022-10-13T03:22:47;5.78;;;1.95;;
39948;SDS011;29070;48.102;-1.652;2022-10-13T03:27:48;3.10;;;1.97;;
39948;SDS011;29070;48.102;-1.652;2022-10-13T03:32:48;2.93;;;1.70;;
39948;SDS011;29070;48.102;-1.652;2022-10-13T03:37:48;6.17;;;1.90;;
39948;SDS011;29070;48.102;-1.652;2022-10-13T03:42:49;9.70;;;2.00;;
39948;SDS011;29070;48.102;-1.652;2022-10-13T03:47:49;9.00;;;2.43;;
39948;SDS011;29070;48.102;-1.652;2022-10-13T03:52:49;9.50;;;1.93;;
39948;SDS011;29070;48.102;-1.652;2022-10-13T03:57:50;7.50;;;1.60;;
39948;SDS011;29070;48.102;-1.652;2022-10-13T04:02:50;8.33;;;2.10;;
39948;SDS011;29070;48.102;-1.652;2022-10-13T04:07:50;6.87;;;2.13;;
39948;SDS011;29070;48.102;-1.652;2022-10-13T04:12:51;7.07;;;1.97;;
39948;SDS011;29070;48.102;-1.652;2022-10-13T04:17:51;10.03;;;2.27;;
39948;SDS011;29070;48.102;-1.652;2022-10-13T04:22:52;7.40;;;1.95;;
39948;SDS011;29070;48.102;-1.652;2022-10-13T04:27:52;7.80;;;2.47;;
39948;SDS011;29070;48.102;-1.652;2022-10-13T04:32:52;3.03;;;1.88;;
39948;SDS011;29070;48.102;-1.652;2022-10-13T04:37:53;5.50;;;2.27;;
39948;SDS011;29070;48.102;-1.652;2022-10-13T04:42:53;9.75;;;2.00;;
39948;SDS011;29070;48.102;-1.652;2022-10-13T04:47:53;7.07;;;2.50;;
39948;SDS011;29070;48.102;-1.652;2022-10-13T04:52:54;6.47;;;2.57;;
39948;SDS011;29070;48.102;-1.652;2022-10-13T04:57:54;10.43;;;2.33;;
39948;SDS011;29070;48.102;-1.652;2022-10-13T05:02:55;6.90;;;2.67;;
39948;SDS011;29070;48.102;-1.652;2022-10-13T05:07:55;5.70;;;2.40;;
39948;SDS011;29070;48.102;-1.652;2022-10-13T05:12:55;5.70;;;2.40;;
39948;SDS011;29070;48.102;-1.652;2022-10-13T05:17:57;5.80;;;2.27;;
39948;SDS011;29070;48.102;-1.652;2022-10-13T05:22:58;5.80;;;2.55;;
39948;SDS011;29070;48.102;-1.652;2022-10-13T05:27:58;11.70;;;2.90;;
39948;SDS011;29070;48.102;-1.652;2022-10-13T05:32:59;7.85;;;2.63;;
39948;SDS011;29070;48.102;-1.652;2022-10-13T05:37:59;7.80;;;2.63;;
39948;SDS011;29070;48.102;-1.652;2022-10-13T05:43:00;5.93;;;2.55;;
39948;SDS011;29070;48.102;-1.652;2022-10-13T05:48:00;6.87;;;3.17;;
39948;SDS011;29070;48.102;-1.652;2022-10-13T05:53:00;7.97;;;2.97;;
39948;SDS011;29070;48.102;-1.652;2022-10-13T05:58:01;5.30;;;2.50;;
39948;SDS011;29070;48.102;-1.652;2022-10-13T06:03:03;6.07;;;2.40;;
39948;SDS011;29070;48.102;-1.652;2022-10-13T06:08:10;6.57;;;3.15;;
39948;SDS011;29070;48.102;-1.652;2022-10-13T06:13:10;6.85;;;3.40;;
39948;SDS011;29070;48.102;-1.652;2022-10-13T06:18:11;6.03;;;2.40;;
39948;SDS011;29070;48.102;-1.652;2022-10-13T06:23:11;10.60;;;2.60;;
39948;SDS011;29070;48.102;-1.652;2022-10-13T06:28:11;10.07;;;3.33;;
39948;SDS011;29070;48.102;-1.652;2022-10-13T06:33:12;6.97;;;2.50;;
39948;SDS011;29070;48.102;-1.652;2022-10-13T06:38:13;4.03;;;2.53;;
39948;SDS011;29070;48.102;-1.652;2022-10-13T06:43:13;6.13;;;2.73;;
39948;SDS011;29070;48.102;-1.652;2022-10-13T06:48:13;8.83;;;2.70;;
39948;SDS011;29070;48.102;-1.652;2022-10-13T06:53:14;7.37;;;3.10;;
39948;SDS011;29070;48.102;-1.652;2022-10-13T06:58:14;6.53;;;2.80;;
39948;SDS011;29070;48.102;-1.652;2022-10-13T07:03:15;7.78;;;2.78;;
39948;SDS011;29070;48.102;-1.652;2022-10-13T07:08:16;6.30;;;2.90;;
39948;SDS011;29070;48.102;-1.652;2022-10-13T07:13:16;7.28;;;2.83;;
39948;SDS011;29070;48.102;-1.652;2022-10-13T07:18:16;5.03;;;2.70;;
39948;SDS011;29070;48.102;-1.652;2022-10-13T07:23:17;4.77;;;2.37;;
39948;SDS011;29070;48.102;-1.652;2022-10-13T07:28:17;6.13;;;2.70;;
39948;SDS011;29070;48.102;-1.652;2022-10-13T07:33:18;8.32;;;2.97;;
39948;SDS011;29070;48.102;-1.652;2022-10-13T07:38:19;7.55;;;2.90;;
39948;SDS011;29070;48.102;-1.652;2022-10-13T07:43:19;10.33;;;2.80;;
39948;SDS011;29070;48.102;-1.652;2022-10-13T07:48:20;8.30;;;3.10;;
39948;SDS011;29070;48.102;-1.652;2022-10-13T07:53:20;6.73;;;3.33;;
39948;SDS011;29070;48.102;-1.652;2022-10-13T07:58:20;6.67;;;3.20;;
39948;SDS011;29070;48.102;-1.652;2022-10-13T08:03:21;9.23;;;3.27;;
39948;SDS011;29070;48.102;-1.652;2022-10-13T08:08:21;8.07;;;3.93;;
39948;SDS011;29070;48.102;-1.652;2022-10-13T08:13:21;9.63;;;3.80;;
39948;SDS011;29070;48.102;-1.652;2022-10-13T08:18:22;10.00;;;5.00;;
39948;SDS011;29070;48.102;-1.652;2022-10-13T08:23:22;7.27;;;4.23;;
39948;SDS011;29070;48.102;-1.652;2022-10-13T08:28:24;6.43;;;2.80;;
39948;SDS011;29070;48.102;-1.652;2022-10-13T08:33:27;6.00;;;2.55;;
39948;SDS011;29070;48.102;-1.652;2022-10-13T08:38:27;8.30;;;3.03;;
39948;SDS011;29070;48.102;-1.652;2022-10-13T08:43:28;9.47;;;3.13;;
39948;SDS011;29070;48.102;-1.652;2022-10-13T08:48:32;5.53;;;2.35;;
39948;SDS011;29070;48.102;-1.652;2022-10-13T08:53:40;10.25;;;2.92;;
39948;SDS011;29070;48.102;-1.652;2022-10-13T08:58:41;5.97;;;2.65;;
39948;SDS011;29070;48.102;-1.652;2022-10-13T09:03:56;9.73;;;2.83;;
39948;SDS011;29070;48.102;-1.652;2022-10-13T09:09:11;7.50;;;2.63;;
39948;SDS011;29070;48.102;-1.652;2022-10-13T09:19:28;5.95;;;2.20;;
39948;SDS011;29070;48.102;-1.652;2022-10-13T09:24:33;10.35;;;2.67;;
39948;SDS011;29070;48.102;-1.652;2022-10-13T09:29:33;7.93;;;3.37;;
39948;SDS011;29070;48.102;-1.652;2022-10-13T09:34:33;7.23;;;2.93;;
39948;SDS011;29070;48.102;-1.652;2022-10-13T09:39:34;6.77;;;2.53;;
39948;SDS011;29070;48.102;-1.652;2022-10-13T09:44:34;4.10;;;2.55;;
39948;SDS011;29070;48.102;-1.652;2022-10-13T09:49:36;8.30;;;2.53;;
39948;SDS011;29070;48.102;-1.652;2022-10-13T09:59:44;6.90;;;2.38;;
39948;SDS011;29070;48.102;-1.652;2022-10-13T10:04:59;5.53;;;2.38;;
39948;SDS011;29070;48.102;-1.652;2022-10-13T10:10:05;7.75;;;2.47;;
39948;SDS011;29070;48.102;-1.652;2022-10-13T10:15:42;8.23;;;2.97;;
39948;SDS011;29070;48.102;-1.652;2022-10-13T10:20:50;5.15;;;2.35;;
39948;SDS011;29070;48.102;-1.652;2022-10-13T10:26:03;5.55;;;2.35;;
39948;SDS011;29070;48.102;-1.652;2022-10-13T10:47:10;4.82;;;2.65;;
39948;SDS011;29070;48.102;-1.652;2022-10-13T10:58:30;8.20;;;2.08;;
39948;SDS011;29070;48.102;-1.652;2022-10-13T11:03:42;3.35;;;1.55;;
39948;SDS011;29070;48.102;-1.652;2022-10-13T11:08:51;2.45;;;1.25;;
39948;SDS011;29070;48.102;-1.652;2022-10-13T11:14:15;2.75;;;1.13;;
39948;SDS011;29070;48.102;-1.652;2022-10-13T11:34:50;1.50;;;0.88;;
39948;SDS011;29070;48.102;-1.652;2022-10-13T11:40:23;1.63;;;0.60;;
39948;SDS011;29070;48.102;-1.652;2022-10-13T11:45:47;1.92;;;0.93;;
39948;SDS011;29070;48.102;-1.652;2022-10-13T11:56:34;4.40;;;0.80;;
39948;SDS011;29070;48.102;-1.652;2022-10-13T12:01:46;2.50;;;0.80;;
39948;SDS011;29070;48.102;-1.652;2022-10-13T12:06:51;34.85;;;5.95;;
39948;SDS011;29070;48.102;-1.652;2022-10-13T12:12:09;2.08;;;0.82;;
39948;SDS011;29070;48.102;-1.652;2022-10-13T12:17:27;1.60;;;0.90;;
39948;SDS011;29070;48.102;-1.652;2022-10-13T12:22:30;5.07;;;1.55;;
39948;SDS011;29070;48.102;-1.652;2022-10-13T12:27:31;2.80;;;1.60;;
39948;SDS011;29070;48.102;-1.652;2022-10-13T12:32:46;3.40;;;1.63;;
39948;SDS011;29070;48.102;-1.652;2022-10-13T12:37:49;2.10;;;1.30;;
39948;SDS011;29070;48.102;-1.652;2022-10-13T12:42:50;1.38;;;0.90;;
39948;SDS011;29070;48.102;-1.652;2022-10-13T12:47:52;3.50;;;1.13;;
39948;SDS011;29070;48.102;-1.652;2022-10-13T12:52:54;2.10;;;0.80;;
39948;SDS011;29070;48.102;-1.652;2022-10-13T12:58:01;2.10;;;0.88;;
39948;SDS011;29070;48.102;-1.652;2022-10-13T13:03:03;2.92;;;1.10;;
39948;SDS011;29070;48.102;-1.652;2022-10-13T13:08:21;1.92;;;0.80;;
39948;SDS011;29070;48.102;-1.652;2022-10-13T13:13:29;2.25;;;1.10;;
39948;SDS011;29070;48.102;-1.652;2022-10-13T13:18:31;3.47;;;0.95;;
39948;SDS011;29070;48.102;-1.652;2022-10-13T13:28:36;1.07;;;0.80;;
39948;SDS011;29070;48.102;-1.652;2022-10-13T13:33:37;3.03;;;1.00;;
39948;SDS011;29070;48.102;-1.652;2022-10-13T13:38:38;2.33;;;0.80;;
39948;SDS011;29070;48.102;-1.652;2022-10-13T13:43:38;1.48;;;0.68;;
39948;SDS011;29070;48.102;-1.652;2022-10-13T13:48:39;1.45;;;0.95;;
39948;SDS011;29070;48.102;-1.652;2022-10-13T13:53:40;3.67;;;0.70;;
39948;SDS011;29070;48.102;-1.652;2022-10-13T13:58:40;1.25;;;0.60;;
39948;SDS011;29070;48.102;-1.652;2022-10-13T14:03:41;2.78;;;0.90;;
39948;SDS011;29070;48.102;-1.652;2022-10-13T14:08:42;1.17;;;0.60;;
39948;SDS011;29070;48.102;-1.652;2022-10-13T14:13:42;0.93;;;0.70;;
39948;SDS011;29070;48.102;-1.652;2022-10-13T14:18:42;1.07;;;0.77;;
39948;SDS011;29070;48.102;-1.652;2022-10-13T14:23:43;1.60;;;0.80;;
39948;SDS011;29070;48.102;-1.652;2022-10-13T14:28:45;5.47;;;0.80;;
39948;SDS011;29070;48.102;-1.652;2022-10-13T14:33:46;0.67;;;0.60;;
39948;SDS011;29070;48.102;-1.652;2022-10-13T14:38:46;2.37;;;0.87;;
39948;SDS011;29070;48.102;-1.652;2022-10-13T14:43:47;2.07;;;0.90;;
39948;SDS011;29070;48.102;-1.652;2022-10-13T14:48:51;0.90;;;0.73;;
39948;SDS011;29070;48.102;-1.652;2022-10-13T14:53:53;2.22;;;0.63;;
39948;SDS011;29070;48.102;-1.652;2022-10-13T14:58:55;2.70;;;0.90;;
39948;SDS011;29070;48.102;-1.652;2022-10-13T15:03:58;1.73;;;1.08;;
39948;SDS011;29070;48.102;-1.652;2022-10-13T15:08:59;1.83;;;1.27;;
39948;SDS011;29070;48.102;-1.652;2022-10-13T15:14:00;3.78;;;3.47;;
39948;SDS011;29070;48.102;-1.652;2022-10-13T15:19:00;3.83;;;3.53;;
39948;SDS011;29070;48.102;-1.652;2022-10-13T15:24:01;4.45;;;2.13;;
39948;SDS011;29070;48.102;-1.652;2022-10-13T15:29:02;2.40;;;1.98;;
39948;SDS011;29070;48.102;-1.652;2022-10-13T15:34:02;2.10;;;1.40;;
39948;SDS011;29070;48.102;-1.652;2022-10-13T15:39:04;4.40;;;4.10;;
39948;SDS011;29070;48.102;-1.652;2022-10-13T15:44:04;3.35;;;2.70;;
39948;SDS011;29070;48.102;-1.652;2022-10-13T15:49:05;3.80;;;2.67;;
39948;SDS011;29070;48.102;-1.652;2022-10-13T15:54:06;4.25;;;3.88;;
39948;SDS011;29070;48.102;-1.652;2022-10-13T15:59:06;3.93;;;2.23;;
39948;SDS011;29070;48.102;-1.652;2022-10-13T16:04:07;6.72;;;3.38;;
39948;SDS011;29070;48.102;-1.652;2022-10-13T16:09:07;5.93;;;3.00;;
39948;SDS011;29070;48.102;-1.652;2022-10-13T16:14:08;4.47;;;2.67;;
39948;SDS011;29070;48.102;-1.652;2022-10-13T16:19:08;10.97;;;10.27;;
39948;SDS011;29070;48.102;-1.652;2022-10-13T16:24:08;4.67;;;4.27;;
39948;SDS011;29070;48.102;-1.652;2022-10-13T16:29:09;5.37;;;2.23;;
39948;SDS011;29070;48.102;-1.652;2022-10-13T16:34:09;4.97;;;4.57;;
39948;SDS011;29070;48.102;-1.652;2022-10-13T16:39:10;3.47;;;2.35;;
39948;SDS011;29070;48.102;-1.652;2022-10-13T16:44:10;4.45;;;3.13;;
39948;SDS011;29070;48.102;-1.652;2022-10-13T16:49:11;3.97;;;2.20;;
39948;SDS011;29070;48.102;-1.652;2022-10-13T16:54:11;6.47;;;2.92;;
39948;SDS011;29070;48.102;-1.652;2022-10-13T16:59:12;4.60;;;2.87;;
39948;SDS011;29070;48.102;-1.652;2022-10-13T17:04:12;11.90;;;7.93;;
39948;SDS011;29070;48.102;-1.652;2022-10-13T17:09:13;25.05;;;12.15;;
39948;SDS011;29070;48.102;-1.652;2022-10-13T17:14:13;36.57;;;21.10;;
39948;SDS011;29070;48.102;-1.652;2022-10-13T17:19:14;10.93;;;5.55;;
39948;SDS011;29070;48.102;-1.652;2022-10-13T17:24:15;7.43;;;4.13;;
39948;SDS011;29070;48.102;-1.652;2022-10-13T17:29:15;9.32;;;4.82;;
39948;SDS011;29070;48.102;-1.652;2022-10-13T17:34:16;7.88;;;4.15;;
39948;SDS011;29070;48.102;-1.652;2022-10-13T17:39:17;6.70;;;4.43;;
39948;SDS011;29070;48.102;-1.652;2022-10-13T17:44:17;7.28;;;4.70;;
39948;SDS011;29070;48.102;-1.652;2022-10-13T17:49:19;7.35;;;4.75;;
39948;SDS011;29070;48.102;-1.652;2022-10-13T17:54:20;7.95;;;4.47;;
39948;SDS011;29070;48.102;-1.652;2022-10-13T17:59:20;8.00;;;3.75;;
39948;SDS011;29070;48.102;-1.652;2022-10-13T18:04:21;8.87;;;4.37;;
39948;SDS011;29070;48.102;-1.652;2022-10-13T18:09:22;6.40;;;4.22;;
39948;SDS011;29070;48.102;-1.652;2022-10-13T18:14:23;8.15;;;4.28;;
39948;SDS011;29070;48.102;-1.652;2022-10-13T18:19:23;6.57;;;4.25;;
39948;SDS011;29070;48.102;-1.652;2022-10-13T18:24:24;37.80;;;12.83;;
39948;SDS011;29070;48.102;-1.652;2022-10-13T18:29:24;13.80;;;6.80;;
39948;SDS011;29070;48.102;-1.652;2022-10-13T18:34:25;10.40;;;5.90;;
39948;SDS011;29070;48.102;-1.652;2022-10-13T18:39:26;8.93;;;5.30;;
39948;SDS011;29070;48.102;-1.652;2022-10-13T18:44:27;14.88;;;6.70;;
39948;SDS011;29070;48.102;-1.652;2022-10-13T18:49:28;8.45;;;5.75;;
39948;SDS011;29070;48.102;-1.652;2022-10-13T18:54:32;9.05;;;5.30;;
39948;SDS011;29070;48.102;-1.652;2022-10-13T18:59:32;12.90;;;6.40;;
39948;SDS011;29070;48.102;-1.652;2022-10-13T19:04:37;15.85;;;7.72;;
39948;SDS011;29070;48.102;-1.652;2022-10-13T19:09:38;11.75;;;6.65;;
39948;SDS011;29070;48.102;-1.652;2022-10-13T19:14:38;13.03;;;6.73;;
39948;SDS011;29070;48.102;-1.652;2022-10-13T19:19:38;12.77;;;6.40;;
39948;SDS011;29070;48.102;-1.652;2022-10-13T19:24:39;12.82;;;6.32;;
39948;SDS011;29070;48.102;-1.652;2022-10-13T19:29:40;13.67;;;7.63;;
39948;SDS011;29070;48.102;-1.652;2022-10-13T19:34:40;20.77;;;12.13;;
39948;SDS011;29070;48.102;-1.652;2022-10-13T19:39:40;16.97;;;9.00;;
39948;SDS011;29070;48.102;-1.652;2022-10-13T19:44:41;14.45;;;8.70;;
39948;SDS011;29070;48.102;-1.652;2022-10-13T19:49:41;13.77;;;8.13;;
39948;SDS011;29070;48.102;-1.652;2022-10-13T19:54:41;14.83;;;7.47;;
39948;SDS011;29070;48.102;-1.652;2022-10-13T19:59:42;17.00;;;8.23;;
39948;SDS011;29070;48.102;-1.652;2022-10-13T20:04:42;13.13;;;7.13;;
39948;SDS011;29070;48.102;-1.652;2022-10-13T20:09:43;14.33;;;7.90;;
39948;SDS011;29070;48.102;-1.652;2022-10-13T20:14:44;15.82;;;7.68;;
39948;SDS011;29070;48.102;-1.652;2022-10-13T20:19:44;13.50;;;7.23;;
39948;SDS011;29070;48.102;-1.652;2022-10-13T20:24:45;11.03;;;6.47;;
39948;SDS011;29070;48.102;-1.652;2022-10-13T20:29:45;14.80;;;8.00;;
39948;SDS011;29070;48.102;-1.652;2022-10-13T20:34:45;12.00;;;6.97;;
39948;SDS011;29070;48.102;-1.652;2022-10-13T20:39:46;15.23;;;7.30;;
39948;SDS011;29070;48.102;-1.652;2022-10-13T20:44:46;9.73;;;6.07;;
39948;SDS011;29070;48.102;-1.652;2022-10-13T20:49:46;9.03;;;5.57;;
39948;SDS011;29070;48.102;-1.652;2022-10-13T20:54:47;5.57;;;3.80;;
39948;SDS011;29070;48.102;-1.652;2022-10-13T20:59:47;5.33;;;3.20;;
39948;SDS011;29070;48.102;-1.652;2022-10-13T21:04:48;7.82;;;4.25;;
39948;SDS011;29070;48.102;-1.652;2022-10-13T21:09:48;7.60;;;3.10;;
39948;SDS011;29070;48.102;-1.652;2022-10-13T21:14:48;7.93;;;3.63;;
39948;SDS011;29070;48.102;-1.652;2022-10-13T21:19:49;6.67;;;3.40;;
39948;SDS011;29070;48.102;-1.652;2022-10-13T21:24:49;3.80;;;2.87;;
39948;SDS011;29070;48.102;-1.652;2022-10-13T21:29:49;7.40;;;3.13;;
39948;SDS011;29070;48.102;-1.652;2022-10-13T21:34:50;6.07;;;3.53;;
39948;SDS011;29070;48.102;-1.652;2022-10-13T21:39:52;4.82;;;2.90;;
39948;SDS011;29070;48.102;-1.652;2022-10-13T21:44:52;4.67;;;2.90;;
39948;SDS011;29070;48.102;-1.652;2022-10-13T21:49:53;7.53;;;2.57;;
39948;SDS011;29070;48.102;-1.652;2022-10-13T21:54:53;4.13;;;2.40;;
39948;SDS011;29070;48.102;-1.652;2022-10-13T21:59:54;4.22;;;2.20;;
39948;SDS011;29070;48.102;-1.652;2022-10-13T22:04:54;4.53;;;2.33;;
39948;SDS011;29070;48.102;-1.652;2022-10-13T22:09:54;3.43;;;2.27;;
39948;SDS011;29070;48.102;-1.652;2022-10-13T22:14:54;6.13;;;2.33;;
39948;SDS011;29070;48.102;-1.652;2022-10-13T22:19:55;5.63;;;2.20;;
39948;SDS011;29070;48.102;-1.652;2022-10-13T22:24:55;7.67;;;2.40;;
39948;SDS011;29070;48.102;-1.652;2022-10-13T22:29:56;3.83;;;2.40;;
39948;SDS011;29070;48.102;-1.652;2022-10-13T22:34:56;6.27;;;2.60;;
39948;SDS011;29070;48.102;-1.652;2022-10-13T22:39:56;5.43;;;2.67;;
39948;SDS011;29070;48.102;-1.652;2022-10-13T22:44:57;6.77;;;3.13;;
39948;SDS011;29070;48.102;-1.652;2022-10-13T22:49:57;4.80;;;2.67;;
39948;SDS011;29070;48.102;-1.652;2022-10-13T22:54:57;5.17;;;2.37;;
39948;SDS011;29070;48.102;-1.652;2022-10-13T22:59:58;4.27;;;2.37;;
39948;SDS011;29070;48.102;-1.652;2022-10-13T23:04:58;4.83;;;2.40;;
39948;SDS011;29070;48.102;-1.652;2022-10-13T23:09:58;6.73;;;3.20;;
39948;SDS011;29070;48.102;-1.652;2022-10-13T23:14:59;6.43;;;3.07;;
39948;SDS011;29070;48.102;-1.652;2022-10-13T23:19:59;5.97;;;3.00;;
39948;SDS011;29070;48.102;-1.652;2022-10-13T23:24:59;5.97;;;3.23;;
39948;SDS011;29070;48.102;-1.652;2022-10-13T23:30:00;6.03;;;2.87;;
39948;SDS011;29070;48.102;-1.652;2022-10-13T23:35:00;4.82;;;2.35;;
39948;SDS011;29070;48.102;-1.652;2022-10-13T23:40:00;6.73;;;2.53;;
39948;SDS011;29070;48.102;-1.652;2022-10-13T23:45:01;5.37;;;2.20;;
39948;SDS011;29070;48.102;-1.652;2022-10-13T23:50:02;5.93;;;2.33;;
39948;SDS011;29070;48.102;-1.652;2022-10-13T23:55:02;4.18;;;2.20;;
